Time;durP1;ratioP1;P1;durP2;ratioP2;P2;SDS_P1;SDS_P2;PMS_P1;PMS_P2;Temp;Humidity;BMP_temperature;BMP_pressure;BME280_temperature;BME280_humidity;BME280_pressure;Samples;Min_cycle;Max_cycle;Signal;HPM_P1;HPM_P2
2022/03/10 00:00:49;;;;;;;9.13;5.90;;;1.00;99.90;;;;;;4998740;28;20193;-74
2022/03/10 00:03:17;;;;;;;9.97;5.63;;;0.90;99.90;;;;;;4998389;28;20222;-74
2022/03/10 00:05:43;;;;;;;8.77;6.20;;;0.80;99.90;;;;;;4999464;28;20189;-74
2022/03/10 00:08:09;;;;;;;7.60;5.77;;;0.80;99.90;;;;;;4999024;28;20183;-74
2022/03/10 00:10:35;;;;;;;9.60;6.20;;;0.70;99.90;;;;;;4998920;28;20189;-74
2022/03/10 00:13:00;;;;;;;9.90;6.03;;;0.80;99.90;;;;;;4998581;28;20589;-74
2022/03/10 00:15:26;;;;;;;9.47;5.87;;;0.60;99.90;;;;;;4998530;28;20182;-74
2022/03/10 00:17:53;;;;;;;9.70;6.37;;;0.50;99.90;;;;;;4998600;28;20178;-74
2022/03/10 00:20:20;;;;;;;10.30;6.33;;;0.50;99.90;;;;;;5015168;28;20178;-77
2022/03/10 00:22:48;;;;;;;9.60;6.40;;;0.50;99.90;;;;;;5015032;28;20744;-77
2022/03/10 00:25:14;;;;;;;9.10;6.37;;;0.50;99.90;;;;;;4999113;28;20182;-77
2022/03/10 00:27:40;;;;;;;8.17;5.60;;;0.50;99.90;;;;;;5015403;28;20179;-77
2022/03/10 00:30:07;;;;;;;8.10;5.70;;;0.50;99.90;;;;;;5015330;28;20174;-77
2022/03/10 00:32:33;;;;;;;8.33;5.60;;;0.50;99.90;;;;;;4998697;28;20199;-77
2022/03/10 00:34:58;;;;;;;8.83;5.30;;;0.50;99.90;;;;;;4999068;28;20225;-77
2022/03/10 00:37:24;;;;;;;6.87;4.90;;;0.40;99.90;;;;;;5000390;28;20206;-76
2022/03/10 00:39:50;;;;;;;7.53;5.00;;;0.40;99.90;;;;;;5002780;28;20243;-77
2022/03/10 00:42:15;;;;;;;7.77;5.07;;;0.40;99.90;;;;;;5002568;28;20194;-77
2022/03/10 00:44:41;;;;;;;7.70;5.23;;;0.30;99.90;;;;;;5002713;28;20281;-77
2022/03/10 00:47:09;;;;;;;9.87;5.57;;;0.30;99.90;;;;;;5002502;28;20186;-77
2022/03/10 00:49:35;;;;;;;9.50;5.53;;;0.40;99.90;;;;;;5002765;28;20186;-77
2022/03/10 00:52:01;;;;;;;8.07;5.10;;;0.40;99.90;;;;;;5002197;28;20209;-77
2022/03/10 00:54:26;;;;;;;9.30;5.80;;;0.40;99.90;;;;;;5002578;28;20305;-76
2022/03/10 00:56:52;;;;;;;9.83;5.97;;;0.30;99.90;;;;;;5002612;28;20194;-77
2022/03/10 00:59:17;;;;;;;10.47;5.83;;;0.30;99.90;;;;;;5002459;28;20627;-77
2022/03/10 01:01:43;;;;;;;9.30;5.83;;;0.20;99.90;;;;;;5020533;22;20223;-75
2022/03/10 01:04:08;;;;;;;8.73;5.80;;;0.20;99.90;;;;;;4962887;28;20242;-75
2022/03/10 01:06:34;;;;;;;7.63;5.03;;;0.20;99.90;;;;;;4946636;28;20190;-75
2022/03/10 01:09:00;;;;;;;8.07;5.40;;;0.20;99.90;;;;;;4962625;28;20202;-75
2022/03/10 01:11:25;;;;;;;9.13;5.70;;;0.30;99.90;;;;;;4963406;28;20191;-75
2022/03/10 01:13:51;;;;;;;8.63;5.63;;;0.40;99.90;;;;;;4981932;28;20198;-75
2022/03/10 01:16:18;;;;;;;8.37;5.57;;;0.30;99.90;;;;;;4965987;28;20180;-75
2022/03/10 01:18:44;;;;;;;9.53;5.77;;;0.30;99.90;;;;;;4998003;28;20180;-75
2022/03/10 01:21:09;;;;;;;8.10;5.40;;;0.40;99.90;;;;;;4965908;28;20326;-75
2022/03/10 01:23:35;;;;;;;10.20;6.03;;;0.40;99.90;;;;;;4981525;28;20203;-75
2022/03/10 01:26:01;;;;;;;10.43;6.10;;;0.40;99.90;;;;;;4965783;28;20187;-75
2022/03/10 01:28:26;;;;;;;10.27;5.73;;;0.40;99.90;;;;;;4981654;28;20179;-75
2022/03/10 01:30:52;;;;;;;7.40;5.20;;;0.30;99.90;;;;;;4965446;28;20186;-75
2022/03/10 01:33:17;;;;;;;7.87;5.40;;;0.40;99.90;;;;;;4981179;28;20599;-75
2022/03/10 01:35:43;;;;;;;9.83;5.93;;;0.40;99.90;;;;;;4965505;28;20580;-75
2022/03/10 01:38:09;;;;;;;8.33;5.47;;;0.30;99.90;;;;;;4965263;28;20590;-75
2022/03/10 01:40:35;;;;;;;7.90;5.30;;;0.10;99.90;;;;;;4981361;28;20171;-75
2022/03/10 01:43:00;;;;;;;8.73;5.80;;;0.00;99.90;;;;;;4965136;28;20229;-75
2022/03/10 01:45:26;;;;;;;9.23;5.67;;;-0.20;99.90;;;;;;4964871;28;20205;-75
2022/03/10 01:47:51;;;;;;;9.57;6.20;;;-0.30;99.90;;;;;;4964843;28;20205;-75
2022/03/10 01:50:17;;;;;;;8.67;5.90;;;-0.30;99.90;;;;;;4981279;28;20194;-75
2022/03/10 01:52:44;;;;;;;8.93;5.80;;;-0.30;99.90;;;;;;4980774;28;20297;-75
2022/03/10 01:55:10;;;;;;;10.70;5.73;;;-0.20;99.90;;;;;;4981022;28;20182;-75
2022/03/10 01:57:36;;;;;;;7.13;5.10;;;-0.20;99.90;;;;;;4997332;28;20174;-75
2022/03/10 02:00:05;;;;;;;8.50;5.30;;;-0.20;99.90;;;;;;4965048;28;20174;-75
2022/03/10 02:02:30;;;;;;;10.47;6.13;;;-0.10;99.90;;;;;;4986691;28;20207;-75
2022/03/10 02:04:56;;;;;;;8.23;5.30;;;0.00;99.90;;;;;;4997167;28;20182;-75
2022/03/10 02:10:18;;;;;;;8.80;5.63;;;-0.30;99.90;;;;;;5014728;28;20190;-75
2022/03/10 02:12:49;;;;;;;9.10;6.07;;;-0.30;99.90;;;;;;5012967;28;20194;-75
2022/03/10 02:18:05;;;;;;;8.83;5.80;;;-0.40;99.90;;;;;;5014783;28;20227;-75
2022/03/10 02:20:31;;;;;;;8.73;5.93;;;-0.40;99.90;;;;;;5013336;28;20202;-75
2022/03/10 02:22:57;;;;;;;8.53;4.97;;;-0.50;99.90;;;;;;4996608;28;20259;-75
2022/03/10 02:25:24;;;;;;;8.80;5.87;;;-0.40;99.90;;;;;;5013083;28;20175;-75
2022/03/10 02:27:52;;;;;;;6.80;4.73;;;-0.50;99.90;;;;;;4996604;28;20565;-75
2022/03/10 02:30:19;;;;;;;7.40;5.13;;;-0.50;99.90;;;;;;5013030;28;20272;-75
2022/03/10 02:32:46;;;;;;;8.63;5.60;;;-0.60;99.90;;;;;;4996484;28;20202;-75
2022/03/10 02:35:12;;;;;;;9.60;5.23;;;-0.60;99.90;;;;;;4996686;28;20182;-75
2022/03/10 02:37:38;;;;;;;8.33;5.13;;;-0.50;99.90;;;;;;4996587;28;20193;-75
2022/03/10 02:40:04;;;;;;;7.20;4.60;;;-0.50;99.90;;;;;;5012868;28;20178;-75
2022/03/10 02:42:32;;;;;;;7.63;5.23;;;-0.60;99.90;;;;;;5012357;28;20200;-75
2022/03/10 02:44:58;;;;;;;10.03;5.60;;;-0.80;99.90;;;;;;5012676;28;20269;-75
2022/03/10 02:47:24;;;;;;;7.30;5.07;;;-0.80;99.90;;;;;;5012792;28;20272;-75
2022/03/10 02:49:50;;;;;;;7.23;5.00;;;-0.70;99.90;;;;;;5012554;28;20186;-75
2022/03/10 02:52:16;;;;;;;7.33;5.53;;;-0.80;99.90;;;;;;5012350;28;20197;-75
2022/03/10 02:54:43;;;;;;;9.83;5.70;;;-0.70;99.90;;;;;;5012472;28;20216;-75
2022/03/10 02:57:08;;;;;;;9.57;6.20;;;-0.80;99.90;;;;;;4996283;28;20204;-75
2022/03/10 02:59:34;;;;;;;9.30;5.67;;;-0.80;99.90;;;;;;5011929;28;20704;-75
2022/03/10 03:02:00;;;;;;;8.77;5.63;;;-0.80;99.90;;;;;;4995707;28;20584;-75
2022/03/10 03:04:26;;;;;;;7.37;5.17;;;-0.90;99.90;;;;;;4996035;28;20185;-76
2022/03/10 03:06:52;;;;;;;11.00;6.23;;;-0.80;99.90;;;;;;5013429;28;20234;-75
2022/03/10 03:09:17;;;;;;;8.37;5.30;;;-0.90;99.90;;;;;;4996227;28;20186;-75
2022/03/10 03:11:43;;;;;;;10.33;5.47;;;-0.80;99.90;;;;;;4995700;28;20212;-75
2022/03/10 03:14:09;;;;;;;9.00;5.73;;;-0.90;99.90;;;;;;4995956;28;20243;-75
2022/03/10 03:16:35;;;;;;;8.37;5.67;;;-0.80;99.90;;;;;;4996050;28;20224;-75
2022/03/10 03:19:00;;;;;;;10.00;6.20;;;-0.80;99.90;;;;;;4996055;28;20184;-75
2022/03/10 03:21:26;;;;;;;10.33;6.10;;;-0.90;99.90;;;;;;4995519;28;20590;-75
2022/03/10 03:23:52;;;;;;;10.40;6.07;;;-1.00;99.90;;;;;;4995589;28;20189;-75
2022/03/10 03:26:18;;;;;;;10.43;6.10;;;-0.90;99.90;;;;;;5011922;28;20566;-75
2022/03/10 03:28:43;;;;;;;10.10;5.90;;;-0.80;99.90;;;;;;5012051;28;20272;-75
2022/03/10 03:31:12;;;;;;;9.07;5.70;;;-0.90;99.90;;;;;;5011943;28;20211;-75
2022/03/10 03:33:39;;;;;;;9.63;6.43;;;-0.90;99.90;;;;;;4995288;28;20220;-75
2022/03/10 03:36:05;;;;;;;8.13;5.63;;;-0.90;99.90;;;;;;5011823;28;20223;-75
2022/03/10 03:38:32;;;;;;;9.30;5.77;;;-0.90;99.90;;;;;;4995386;28;20274;-75
2022/03/10 03:40:58;;;;;;;9.77;5.77;;;-0.90;99.90;;;;;;4995296;28;20213;-75
2022/03/10 03:43:24;;;;;;;8.70;5.73;;;-0.90;99.90;;;;;;4995234;28;20208;-75
2022/03/10 03:45:50;;;;;;;10.07;6.00;;;-1.00;99.90;;;;;;5011399;28;20185;-75
2022/03/10 03:48:15;;;;;;;10.40;6.00;;;-1.00;99.90;;;;;;4995488;28;20572;-75
2022/03/10 03:50:41;;;;;;;9.20;5.80;;;-0.90;99.90;;;;;;4995300;28;20211;-75
2022/03/10 03:53:07;;;;;;;9.70;6.03;;;-0.90;99.90;;;;;;4994777;28;20216;-75
2022/03/10 03:55:32;;;;;;;11.67;6.17;;;-0.90;99.90;;;;;;5011560;28;20188;-75
2022/03/10 03:57:58;;;;;;;9.13;6.07;;;-1.00;99.90;;;;;;4995284;28;20185;-75
2022/03/10 04:00:23;;;;;;;10.20;6.03;;;-1.00;99.90;;;;;;4995278;28;20178;-75
2022/03/10 04:02:49;;;;;;;9.33;6.20;;;-1.00;99.90;;;;;;4994857;28;20264;-75
2022/03/10 04:05:15;;;;;;;8.10;5.97;;;-0.90;99.90;;;;;;4994892;28;20575;-75
2022/03/10 04:07:41;;;;;;;8.60;5.50;;;-0.90;99.90;;;;;;4995147;28;20191;-75
2022/03/10 04:10:08;;;;;;;10.03;5.87;;;-0.90;99.90;;;;;;5011124;28;20182;-75
2022/03/10 04:12:35;;;;;;;8.77;5.90;;;-1.10;99.90;;;;;;5011164;28;20221;-75
2022/03/10 04:15:01;;;;;;;8.00;5.47;;;-1.10;99.90;;;;;;5011110;28;20235;-75
2022/03/10 04:17:27;;;;;;;9.80;5.73;;;-1.10;99.90;;;;;;4995069;28;20180;-76
2022/03/10 04:19:53;;;;;;;9.43;5.67;;;-1.10;99.90;;;;;;5011199;28;20228;-75
2022/03/10 04:22:19;;;;;;;10.37;5.70;;;-1.00;99.90;;;;;;4994548;28;20201;-75
2022/03/10 04:24:45;;;;;;;8.27;5.80;;;-1.20;99.90;;;;;;4994802;28;20181;-75
2022/03/10 04:27:11;;;;;;;8.70;5.47;;;-1.30;99.90;;;;;;5011077;28;20280;-75
2022/03/10 04:29:37;;;;;;;8.00;5.47;;;-1.30;99.90;;;;;;5011268;28;20199;-75
2022/03/10 04:32:03;;;;;;;8.90;5.30;;;-1.30;99.90;;;;;;5010805;28;20201;-75
2022/03/10 04:34:29;;;;;;;7.50;5.80;;;-1.30;99.90;;;;;;5010962;28;20296;-75
2022/03/10 04:36:55;;;;;;;9.83;5.87;;;-1.40;99.90;;;;;;5010999;28;20173;-75
2022/03/10 04:39:20;;;;;;;8.60;6.00;;;-1.50;99.90;;;;;;5010998;28;20271;-75
2022/03/10 04:41:46;;;;;;;9.50;5.97;;;-1.50;99.90;;;;;;4994385;28;20212;-75
2022/03/10 04:44:11;;;;;;;10.43;5.93;;;-1.60;99.90;;;;;;5010852;28;20191;-75
2022/03/10 04:46:37;;;;;;;9.17;5.63;;;-1.50;99.90;;;;;;4994248;28;20177;-75
2022/03/10 04:49:03;;;;;;;8.87;5.70;;;-1.50;99.90;;;;;;4994582;28;20190;-75
2022/03/10 04:51:29;;;;;;;8.80;5.10;;;-1.50;99.90;;;;;;4994243;28;20183;-75
2022/03/10 04:53:54;;;;;;;8.17;5.60;;;-1.40;99.90;;;;;;4994696;28;20214;-75
2022/03/10 04:56:20;;;;;;;7.63;5.50;;;-1.40;99.90;;;;;;4994498;28;20236;-75
2022/03/10 04:58:46;;;;;;;9.73;6.00;;;-1.30;99.90;;;;;;5010774;28;20580;-75
2022/03/10 05:01:12;;;;;;;9.07;5.70;;;-1.20;99.90;;;;;;5010977;28;20181;-75
2022/03/10 05:03:38;;;;;;;8.03;5.47;;;-1.20;99.90;;;;;;5010559;28;20222;-75
2022/03/10 05:06:04;;;;;;;8.60;5.60;;;-1.30;99.90;;;;;;4994541;28;20184;-75
2022/03/10 05:08:29;;;;;;;9.60;5.53;;;-1.40;99.90;;;;;;4994369;28;20188;-75
2022/03/10 05:10:55;;;;;;;9.53;5.50;;;-1.50;99.90;;;;;;5011839;28;20200;-75
2022/03/10 05:13:21;;;;;;;10.00;5.77;;;-1.60;99.90;;;;;;5010303;28;20620;-75
2022/03/10 05:15:47;;;;;;;10.10;6.57;;;-1.60;99.90;;;;;;5010724;28;20184;-75
2022/03/10 05:18:12;;;;;;;11.03;6.30;;;-1.70;99.90;;;;;;4994361;28;20181;-75
2022/03/10 05:20:38;;;;;;;10.37;6.70;;;-1.60;99.90;;;;;;5011180;28;20185;-75
2022/03/10 05:23:05;;;;;;;9.60;6.17;;;-1.50;99.90;;;;;;4994905;28;20221;-75
2022/03/10 05:25:35;;;;;;;10.33;6.23;;;-1.40;99.90;;;;;;5014414;28;20191;-75
2022/03/10 05:28:02;;;;;;;8.20;5.90;;;-1.20;99.90;;;;;;5015689;28;20182;-75
2022/03/10 05:30:28;;;;;;;8.33;5.60;;;-1.20;99.90;;;;;;5015705;28;20638;-75
2022/03/10 05:32:53;;;;;;;9.10;6.27;;;-1.20;99.90;;;;;;4997470;28;20207;-75
2022/03/10 05:35:19;;;;;;;9.87;5.97;;;-1.30;99.90;;;;;;4997643;28;20180;-75
2022/03/10 05:37:48;;;;;;;9.77;6.37;;;-1.40;99.90;;;;;;4997927;28;20186;-75
2022/03/10 05:40:16;;;;;;;9.43;6.57;;;-1.50;99.90;;;;;;5014260;28;20184;-75
2022/03/10 05:42:43;;;;;;;12.67;6.53;;;-1.50;99.90;;;;;;5013834;28;20231;-75
2022/03/10 05:45:10;;;;;;;9.53;6.23;;;-1.50;99.90;;;;;;4997448;28;20184;-75
2022/03/10 05:47:38;;;;;;;11.87;6.63;;;-1.50;99.90;;;;;;4997529;28;20182;-75
2022/03/10 05:50:04;;;;;;;10.30;6.53;;;-1.60;99.90;;;;;;5013730;28;20212;-75
2022/03/10 05:52:30;;;;;;;9.43;6.13;;;-1.60;99.90;;;;;;5013352;28;20197;-75
2022/03/10 05:54:56;;;;;;;10.03;6.57;;;-1.40;99.90;;;;;;4997654;28;20301;-75
2022/03/10 05:57:22;;;;;;;9.80;6.30;;;-1.50;99.90;;;;;;4997208;28;20183;-75
2022/03/10 05:59:47;;;;;;;9.87;6.60;;;-1.40;99.90;;;;;;5013563;28;20177;-76
2022/03/10 06:02:16;;;;;;;10.80;6.47;;;-1.50;99.90;;;;;;4996870;28;20302;-75
2022/03/10 06:04:41;;;;;;;11.73;6.53;;;-1.40;99.90;;;;;;4997250;28;20191;-75
2022/03/10 06:07:07;;;;;;;12.37;6.97;;;-1.60;99.90;;;;;;4997162;28;20180;-75
2022/03/10 06:09:32;;;;;;;12.03;7.53;;;-1.70;99.90;;;;;;4997368;28;20184;-75
2022/03/10 06:11:59;;;;;;;11.43;7.23;;;-1.70;99.90;;;;;;4997010;28;20200;-75
2022/03/10 06:14:25;;;;;;;17.47;7.30;;;-1.70;99.90;;;;;;5013553;28;20211;-74
2022/03/10 06:16:50;;;;;;;10.50;6.30;;;-1.80;99.90;;;;;;4997119;28;20231;-75
2022/03/10 06:19:16;;;;;;;12.97;8.37;;;-1.70;99.90;;;;;;5013332;28;20517;-75
2022/03/10 06:21:42;;;;;;;14.93;8.73;;;-1.70;99.90;;;;;;5012975;28;20192;-75
2022/03/10 06:24:07;;;;;;;11.57;7.33;;;-1.60;99.90;;;;;;5013489;28;20196;-75
2022/03/10 06:26:36;;;;;;;12.57;8.20;;;-1.60;99.90;;;;;;5014308;28;20180;-74
2022/03/10 06:29:03;;;;;;;13.10;8.27;;;-1.70;99.90;;;;;;4997087;28;20220;-75
2022/03/10 06:31:29;;;;;;;15.97;8.80;;;-1.60;99.90;;;;;;5012801;28;20206;-74
2022/03/10 06:33:55;;;;;;;14.53;9.10;;;-1.60;99.90;;;;;;4996428;28;20207;-74
2022/03/10 06:36:21;;;;;;;13.47;8.30;;;-1.70;99.90;;;;;;4995982;28;20179;-75
2022/03/10 06:38:46;;;;;;;18.80;12.00;;;-1.80;99.90;;;;;;5012642;28;20311;-75
2022/03/10 06:41:12;;;;;;;16.70;10.03;;;-1.80;99.90;;;;;;4996729;28;20183;-75
2022/03/10 06:43:37;;;;;;;10.07;6.53;;;-1.80;99.90;;;;;;5012535;28;20691;-74
2022/03/10 06:46:04;;;;;;;11.77;6.90;;;-1.50;99.90;;;;;;4996507;28;20238;-75
2022/03/10 06:48:29;;;;;;;14.20;8.20;;;-0.90;99.90;;;;;;5012753;28;20592;-74
2022/03/10 06:50:55;;;;;;;15.23;8.37;;;-1.00;99.90;;;;;;5012657;28;20175;-75
2022/03/10 06:53:21;;;;;;;11.97;7.70;;;-1.10;99.90;;;;;;5012548;28;20207;-75
2022/03/10 06:55:47;;;;;;;13.43;7.93;;;-1.20;99.90;;;;;;4996273;28;20181;-75
2022/03/10 06:58:12;;;;;;;12.27;8.43;;;-1.20;99.90;;;;;;4996490;28;20195;-76
2022/03/10 07:00:38;;;;;;;14.57;8.40;;;-1.10;99.90;;;;;;4996159;28;20670;-76
2022/03/10 07:03:04;;;;;;;12.23;7.77;;;-1.20;99.90;;;;;;5029912;23;20236;-75
2022/03/10 07:05:30;;;;;;;13.93;8.60;;;-1.10;99.90;;;;;;4974613;28;20169;-76
2022/03/10 07:07:55;;;;;;;15.70;8.43;;;-1.00;99.90;;;;;;4973488;28;20177;-75
2022/03/10 07:10:21;;;;;;;15.73;8.50;;;-0.90;99.90;;;;;;4957270;28;20182;-75
2022/03/10 07:12:47;;;;;;;15.47;7.97;;;-0.90;99.90;;;;;;4953776;28;20211;-74
2022/03/10 07:15:14;;;;;;;13.47;8.23;;;-0.80;99.90;;;;;;4938129;28;20183;-75
2022/03/10 07:17:41;;;;;;;14.87;8.70;;;-0.70;99.90;;;;;;4953968;29;20173;-74
2022/03/10 07:20:07;;;;;;;12.30;8.33;;;-0.70;99.90;;;;;;4954127;29;20177;-74
2022/03/10 07:22:33;;;;;;;15.90;9.27;;;-0.60;99.90;;;;;;4953699;28;20667;-75
2022/03/10 07:24:59;;;;;;;12.70;8.33;;;-0.60;99.90;;;;;;4953858;28;20184;-75
2022/03/10 07:27:24;;;;;;;16.43;8.90;;;-0.60;99.90;;;;;;4937679;29;20613;-75
2022/03/10 07:29:50;;;;;;;14.07;8.70;;;-0.40;99.90;;;;;;4953980;29;20178;-75
2022/03/10 07:32:15;;;;;;;14.80;9.33;;;-0.30;99.90;;;;;;4937607;28;20208;-75
2022/03/10 07:34:41;;;;;;;15.20;9.40;;;-0.30;99.90;;;;;;4953663;28;20209;-75
2022/03/10 07:37:07;;;;;;;14.47;8.87;;;-0.30;99.90;;;;;;4953582;29;20185;-75
2022/03/10 07:39:32;;;;;;;14.43;9.40;;;-0.20;99.90;;;;;;4937814;28;20277;-75
2022/03/10 07:42:00;;;;;;;17.20;9.83;;;-0.10;99.90;;;;;;4937350;29;20180;-75
2022/03/10 07:44:26;;;;;;;17.47;9.83;;;-0.10;99.90;;;;;;4937629;29;20189;-75
2022/03/10 07:46:51;;;;;;;14.23;9.27;;;0.00;99.90;;;;;;4937113;28;20184;-75
2022/03/10 07:49:17;;;;;;;14.43;9.23;;;0.20;99.90;;;;;;4953454;28;20188;-75
2022/03/10 07:51:44;;;;;;;15.67;10.23;;;0.30;99.90;;;;;;4937594;29;20548;-75
2022/03/10 07:54:10;;;;;;;14.17;9.20;;;0.50;99.90;;;;;;4953224;28;20208;-75
2022/03/10 07:56:35;;;;;;;13.70;9.17;;;0.60;99.90;;;;;;4952934;28;20192;-75
2022/03/10 07:59:01;;;;;;;14.37;9.40;;;0.80;99.90;;;;;;4937311;28;20215;-75
2022/03/10 08:01:26;;;;;;;13.23;8.50;;;1.00;99.90;;;;;;4953239;28;20271;-75
2022/03/10 08:03:52;;;;;;;14.77;9.17;;;1.10;99.90;;;;;;4937220;28;20227;-75
2022/03/10 08:06:18;;;;;;;16.33;9.67;;;1.20;99.90;;;;;;4937674;28;20192;-74
2022/03/10 08:08:44;;;;;;;17.20;9.43;;;1.30;99.90;;;;;;4953029;28;20319;-75
2022/03/10 08:11:10;;;;;;;15.33;10.43;;;1.40;99.90;;;;;;4936293;28;20235;-75
2022/03/10 08:13:36;;;;;;;15.23;10.33;;;1.50;99.90;;;;;;4952838;28;20220;-75
2022/03/10 08:16:03;;;;;;;15.57;10.80;;;1.50;99.90;;;;;;4952711;28;20184;-75
2022/03/10 08:18:30;;;;;;;17.20;11.70;;;1.70;99.90;;;;;;4954112;29;20177;-75
2022/03/10 08:20:59;;;;;;;15.53;10.83;;;1.90;99.90;;;;;;4936991;29;20184;-75
2022/03/10 08:23:26;;;;;;;15.87;10.40;;;2.00;99.90;;;;;;4936959;29;20255;-75
2022/03/10 08:25:51;;;;;;;15.93;9.60;;;2.20;99.90;;;;;;4952973;29;20207;-75
2022/03/10 08:28:17;;;;;;;15.13;9.53;;;2.40;99.90;;;;;;4952926;28;20208;-74
2022/03/10 08:30:43;;;;;;;16.27;10.10;;;2.50;99.90;;;;;;4952801;28;20236;-74
2022/03/10 08:33:09;;;;;;;15.60;9.40;;;2.70;99.90;;;;;;4952773;28;20204;-74
2022/03/10 08:35:35;;;;;;;15.23;9.80;;;2.90;99.90;;;;;;4954060;28;20180;-74
2022/03/10 08:38:00;;;;;;;13.53;9.33;;;3.10;99.90;;;;;;4954018;29;20189;-75
2022/03/10 08:40:28;;;;;;;15.47;9.23;;;3.20;99.90;;;;;;4952667;29;20205;-74
2022/03/10 08:42:54;;;;;;;14.87;9.13;;;3.40;99.90;;;;;;4968389;28;20202;-74
2022/03/10 08:45:20;;;;;;;14.53;10.43;;;3.50;99.90;;;;;;4952753;29;20184;-74
2022/03/10 08:47:46;;;;;;;14.90;9.60;;;3.70;99.90;;;;;;4952600;28;20177;-74
2022/03/10 08:50:12;;;;;;;13.93;9.40;;;4.00;99.90;;;;;;4936599;29;20186;-74
2022/03/10 08:52:38;;;;;;;16.07;9.67;;;4.00;99.90;;;;;;4952405;28;20285;-74
2022/03/10 08:55:05;;;;;;;17.47;10.47;;;4.20;99.90;;;;;;4952643;29;20198;-74
2022/03/10 08:57:32;;;;;;;18.00;10.30;;;4.40;99.90;;;;;;4952634;28;20180;-74
2022/03/10 08:59:58;;;;;;;16.23;10.17;;;4.60;99.90;;;;;;4940681;29;20183;-74
2022/03/10 09:02:23;;;;;;;16.73;11.20;;;4.80;99.90;;;;;;4940314;29;20646;-75
2022/03/10 09:04:50;;;;;;;16.20;10.20;;;5.00;99.90;;;;;;4924585;29;20209;-74
2022/03/10 09:07:15;;;;;;;17.83;10.30;;;5.30;99.90;;;;;;4940551;29;20584;-74
2022/03/10 09:09:41;;;;;;;16.30;10.50;;;5.50;99.90;;;;;;4940334;29;20659;-74
2022/03/10 09:12:08;;;;;;;19.80;10.83;;;5.60;99.90;;;;;;4956159;28;20203;-74
2022/03/10 09:14:34;;;;;;;17.33;11.40;;;5.90;99.90;;;;;;4956113;28;20204;-74
2022/03/10 09:17:00;;;;;;;15.70;9.97;;;6.00;99.90;;;;;;4956172;28;20188;-74
2022/03/10 09:19:26;;;;;;;15.73;10.10;;;6.20;99.90;;;;;;4957256;28;20173;-74
2022/03/10 09:21:52;;;;;;;15.97;10.33;;;6.20;99.90;;;;;;4939960;29;20228;-74
2022/03/10 09:24:18;;;;;;;17.80;11.47;;;6.20;99.90;;;;;;4940151;28;20184;-74
2022/03/10 09:26:44;;;;;;;15.67;10.13;;;6.30;99.90;;;;;;4956020;28;20189;-74
2022/03/10 09:29:11;;;;;;;14.77;9.63;;;6.50;99.90;;;;;;4955885;28;20181;-74
2022/03/10 09:31:36;;;;;;;16.43;10.20;;;6.60;99.90;;;;;;4955639;28;20641;-74
2022/03/10 09:34:04;;;;;;;15.90;10.63;;;6.80;99.90;;;;;;4939850;29;20205;-74
2022/03/10 09:36:32;;;;;;;17.27;10.03;;;6.90;99.90;;;;;;4956063;28;20235;-74
2022/03/10 09:38:58;;;;;;;17.77;10.13;;;7.20;99.90;;;;;;4955990;29;20173;-74
2022/03/10 09:41:24;;;;;;;14.40;10.00;;;7.50;99.90;;;;;;4939505;28;20178;-74
2022/03/10 09:43:50;;;;;;;15.83;9.47;;;7.70;99.90;;;;;;4939986;29;20213;-74
2022/03/10 09:46:16;;;;;;;16.47;9.33;;;7.80;99.90;;;;;;4939736;28;20177;-74
2022/03/10 09:48:41;;;;;;;12.80;9.03;;;7.70;99.90;;;;;;4956665;28;20233;-74
2022/03/10 09:51:08;;;;;;;15.17;9.50;;;8.00;99.90;;;;;;4939597;28;20274;-74
2022/03/10 09:53:35;;;;;;;13.07;8.87;;;8.20;99.90;;;;;;4939197;29;20247;-74
2022/03/10 09:56:03;;;;;;;13.30;8.87;;;8.50;99.90;;;;;;4955311;28;20184;-74
2022/03/10 09:58:30;;;;;;;13.70;8.87;;;8.70;99.90;;;;;;4955533;28;20190;-74
2022/03/10 10:01:03;;;;;;;15.50;10.03;;;8.90;99.90;;;;;;4939283;29;20589;-74
2022/03/10 10:03:29;;;;;;;13.13;9.27;;;9.20;99.90;;;;;;4955034;28;20357;-75
2022/03/10 10:06:00;;;;;;;14.03;9.30;;;9.40;99.90;;;;;;4939327;29;20236;-74
2022/03/10 10:08:26;;;;;;;12.50;8.93;;;9.70;99.90;;;;;;4954936;28;20177;-74
2022/03/10 10:10:54;;;;;;;11.83;8.87;;;10.00;99.90;;;;;;4955196;29;20557;-74
2022/03/10 10:13:28;;;;;;;10.77;7.53;;;10.10;99.90;;;;;;4954963;28;20209;-74
2022/03/10 10:16:00;;;;;;;11.90;7.93;;;10.20;99.90;;;;;;4955923;28;20174;-74
2022/03/10 10:18:27;;;;;;;11.27;8.10;;;10.20;99.90;;;;;;4954986;28;20181;-74
2022/03/10 10:20:56;;;;;;;11.07;7.70;;;10.40;99.90;;;;;;4954937;28;20177;-75
2022/03/10 10:23:33;;;;;;;11.07;8.07;;;10.40;99.90;;;;;;4955104;28;20206;-74
2022/03/10 10:26:08;;;;;;;12.30;7.90;;;10.60;99.90;;;;;;4955212;29;20227;-74
2022/03/10 10:28:36;;;;;;;11.10;8.03;;;10.80;99.90;;;;;;4955020;28;20179;-74
2022/03/10 10:31:14;;;;;;;12.27;8.10;;;11.00;99.90;;;;;;4954670;28;20567;-74
2022/03/10 10:33:42;;;;;;;11.67;7.93;;;11.10;99.90;;;;;;4939033;29;20219;-74
2022/03/10 10:36:12;;;;;;;11.67;7.90;;;11.40;99.90;;;;;;4939065;29;20175;-74
2022/03/10 10:38:37;;;;;;;10.00;7.50;;;11.50;99.90;;;;;;4954952;28;20539;-74
2022/03/10 10:41:21;;;;;;;10.33;8.10;;;11.60;99.90;;;;;;4970620;28;20184;-74
2022/03/10 10:43:50;;;;;;;11.73;7.40;;;11.70;99.30;;;;;;4938394;28;20208;-74
2022/03/10 10:46:33;;;;;;;9.60;7.00;;;11.70;97.40;;;;;;4954712;28;20189;-74
2022/03/10 10:49:11;;;;;;;13.70;7.10;;;11.90;97.40;;;;;;4954561;29;20185;-74
2022/03/10 10:51:47;;;;;;;10.13;7.23;;;12.20;96.50;;;;;;4954411;28;20275;-74
2022/03/10 10:54:22;;;;;;;10.27;6.93;;;12.40;97.50;;;;;;4954150;28;20208;-75
2022/03/10 10:57:01;;;;;;;11.03;6.60;;;12.80;94.10;;;;;;4954177;28;20607;-74
2022/03/10 10:59:40;;;;;;;11.37;6.80;;;13.00;91.40;;;;;;4954311;28;20173;-75
2022/03/10 11:02:20;;;;;;;7.60;5.60;;;13.10;91.80;;;;;;4953793;28;20588;-74
2022/03/10 11:04:50;;;;;;;6.73;4.87;;;13.30;89.00;;;;;;4954077;28;20195;-74
2022/03/10 11:07:17;;;;;;;7.33;4.70;;;13.20;81.50;;;;;;4955319;28;20207;-74
2022/03/10 11:09:46;;;;;;;7.43;5.00;;;13.10;80.40;;;;;;4955254;29;20173;-75
2022/03/10 11:12:13;;;;;;;7.80;5.27;;;13.30;84.60;;;;;;4938415;29;20548;-74
2022/03/10 11:14:44;;;;;;;8.10;5.17;;;13.60;81.10;;;;;;4938775;29;20234;-75
2022/03/10 11:17:12;;;;;;;7.40;5.03;;;13.70;76.70;;;;;;4954864;29;20208;-75
2022/03/10 11:19:42;;;;;;;9.70;7.00;;;13.80;74.30;;;;;;4938315;29;20645;-74
2022/03/10 11:22:17;;;;;;;6.43;4.93;;;14.10;71.40;;;;;;4937757;29;20201;-74
2022/03/10 11:25:04;;;;;;;7.50;5.27;;;14.20;71.20;;;;;;4937989;29;20172;-74
2022/03/10 11:27:35;;;;;;;8.53;5.40;;;14.40;69.10;;;;;;4938234;29;20196;-74
2022/03/10 11:30:03;;;;;;;7.80;4.77;;;14.20;68.40;;;;;;4954445;29;20180;-74
2022/03/10 11:32:30;;;;;;;8.20;5.37;;;14.10;67.20;;;;;;4954259;29;20197;-74
2022/03/10 11:35:01;;;;;;;6.87;5.33;;;13.90;66.70;;;;;;4954003;29;20220;-74
2022/03/10 11:37:44;;;;;;;8.27;5.40;;;13.70;68.30;;;;;;4954305;29;20189;-74
2022/03/10 11:40:12;;;;;;;6.63;4.80;;;13.70;67.00;;;;;;4937960;29;20547;-74
2022/03/10 11:42:39;;;;;;;8.10;5.33;;;13.90;67.40;;;;;;4954909;29;20263;-75
2022/03/10 11:45:12;;;;;;;6.17;4.77;;;13.90;68.60;;;;;;4954193;29;20180;-74
2022/03/10 11:47:39;;;;;;;8.20;5.07;;;14.20;68.30;;;;;;4937798;29;20272;-74
2022/03/10 11:50:23;;;;;;;8.53;5.20;;;14.10;66.10;;;;;;4954153;28;20185;-74
2022/03/10 11:52:56;;;;;;;8.23;5.47;;;14.30;63.50;;;;;;4937518;29;20212;-73
2022/03/10 11:55:23;;;;;;;8.43;5.13;;;14.50;63.90;;;;;;4955209;29;20244;-74
2022/03/10 11:57:55;;;;;;;8.10;5.57;;;14.80;64.70;;;;;;4937957;29;20260;-75
2022/03/10 12:00:44;;;;;;;7.50;5.20;;;14.90;62.50;;;;;;4937921;29;20169;-75
2022/03/10 12:03:17;;;;;;;7.53;5.50;;;14.80;62.00;;;;;;4937285;29;20244;-75
2022/03/10 12:05:59;;;;;;;8.00;5.77;;;15.10;64.40;;;;;;4953889;28;20619;-74
2022/03/10 12:08:35;;;;;;;7.93;5.70;;;15.10;63.30;;;;;;4953566;28;20183;-75
2022/03/10 12:11:02;;;;;;;8.87;5.80;;;15.20;60.10;;;;;;4937714;29;20201;-75
2022/03/10 12:13:36;;;;;;;6.90;5.50;;;15.40;59.70;;;;;;4954741;29;20239;-75
2022/03/10 12:16:07;;;;;;;7.43;5.27;;;15.10;58.90;;;;;;4937371;29;20271;-75
2022/03/10 12:18:43;;;;;;;6.80;4.87;;;14.90;58.80;;;;;;4953714;28;20638;-75
2022/03/10 12:21:23;;;;;;;6.67;5.20;;;14.90;59.00;;;;;;4937564;29;20177;-75
2022/03/10 12:24:04;;;;;;;7.67;5.73;;;15.10;58.40;;;;;;4953404;29;20211;-75
2022/03/10 12:26:37;;;;;;;7.43;5.60;;;14.90;58.00;;;;;;4953634;28;20173;-74
2022/03/10 12:29:10;;;;;;;9.33;5.73;;;15.00;58.30;;;;;;4954642;29;20168;-74
2022/03/10 12:31:38;;;;;;;7.50;5.80;;;15.00;59.20;;;;;;4954135;29;20197;-74
2022/03/10 12:34:12;;;;;;;8.10;5.80;;;15.20;59.40;;;;;;4936381;29;20220;-75
2022/03/10 12:36:42;;;;;;;8.53;5.33;;;15.20;57.50;;;;;;4937394;29;20188;-75
2022/03/10 12:39:16;;;;;;;7.57;5.50;;;15.30;59.00;;;;;;4954394;29;20169;-75
2022/03/10 12:41:46;;;;;;;6.57;4.77;;;16.10;61.50;;;;;;4953183;29;20212;-75
2022/03/10 12:44:12;;;;;;;6.57;5.10;;;16.60;55.90;;;;;;4953522;28;20213;-75
2022/03/10 12:46:41;;;;;;;8.77;5.43;;;16.90;52.90;;;;;;4953157;28;20646;-75
2022/03/10 12:49:23;;;;;;;6.10;5.03;;;17.00;55.60;;;;;;4937034;29;20181;-75